Time;durP1;ratioP1;P1;durP2;ratioP2;P2;SDS_P1;SDS_P2;PMS_P1;PMS_P2;Temp;Humidity;BMP_temperature;BMP_pressure;BME280_temperature;BME280_humidity;BME280_pressure;Samples;Min_cycle;Max_cycle;Signal;HPM_P1;HPM_P2
2022/08/30 00:01:08;;;;;;;0.00;0.00;;;12.90;99.90;;;;;;5057439;28;20041;-75
2022/08/30 00:03:45;;;;;;;0.00;0.00;;;12.80;99.90;;;;;;5056314;28;20070;-75
2022/08/30 00:06:13;;;;;;;0.00;0.00;;;12.70;99.90;;;;;;5037848;28;20041;-76
2022/08/30 00:08:41;;;;;;;0.00;0.00;;;12.70;99.90;;;;;;5037026;28;20052;-74
2022/08/30 00:11:10;;;;;;;0.10;0.10;;;12.70;99.90;;;;;;5019057;28;20042;-74
2022/08/30 00:13:41;;;;;;;1.15;0.40;;;12.90;99.90;;;;;;5052507;28;20037;-74
2022/08/30 00:16:07;;;;;;;0.35;0.17;;;12.90;99.90;;;;;;5056752;28;20049;-74
2022/08/30 00:18:33;;;;;;;0.00;0.00;;;12.90;99.90;;;;;;5056310;28;20061;-75
2022/08/30 00:20:59;;;;;;;0.00;0.00;;;12.90;99.90;;;;;;5056429;28;20040;-75
2022/08/30 00:23:25;;;;;;;1.10;0.65;;;12.80;99.90;;;;;;5038164;28;20044;-75
2022/08/30 00:25:51;;;;;;;0.00;0.00;;;12.90;99.90;;;;;;5056578;28;20049;-75
2022/08/30 00:28:17;;;;;;;0.28;0.28;;;13.00;99.90;;;;;;5056621;28;20091;-74
2022/08/30 00:30:43;;;;;;;0.00;0.00;;;13.00;99.90;;;;;;5056380;28;20099;-75
2022/08/30 00:33:10;;;;;;;0.00;0.00;;;13.10;99.90;;;;;;5056035;28;20061;-75
2022/08/30 00:35:37;;;;;;;0.10;0.05;;;13.10;99.90;;;;;;5038345;28;20102;-75
2022/08/30 00:38:03;;;;;;;0.22;0.10;;;13.20;99.90;;;;;;5038637;28;20442;-75
2022/08/30 00:40:29;;;;;;;0.30;0.30;;;13.40;99.90;;;;;;5056919;28;20041;-75
2022/08/30 00:42:57;;;;;;;0.20;0.20;;;13.50;99.90;;;;;;5057209;28;20112;-74
2022/08/30 00:45:31;;;;;;;0.08;0.08;;;13.60;99.90;;;;;;5039142;28;20044;-74
2022/08/30 00:47:57;;;;;;;0.40;0.38;;;13.60;99.90;;;;;;5056772;28;20053;-75
2022/08/30 00:50:27;;;;;;;0.03;0.03;;;13.60;99.90;;;;;;5056625;28;20404;-74
2022/08/30 00:52:56;;;;;;;0.13;0.13;;;13.60;99.90;;;;;;5038628;28;20075;-75
2022/08/30 00:55:22;;;;;;;0.13;0.05;;;13.60;99.90;;;;;;5056349;28;20503;-74
2022/08/30 00:57:52;;;;;;;0.00;0.00;;;13.60;99.90;;;;;;5056978;28;20124;-75
2022/08/30 01:00:19;;;;;;;0.00;0.00;;;13.50;99.90;;;;;;5056421;28;20451;-75
2022/08/30 01:02:44;;;;;;;0.75;0.20;;;13.50;99.90;;;;;;5056927;28;20561;-75
2022/08/30 01:05:11;;;;;;;0.30;0.30;;;13.50;99.90;;;;;;5056329;28;20123;-74
2022/08/30 01:07:38;;;;;;;0.00;0.00;;;13.50;99.90;;;;;;5056968;28;20051;-74
2022/08/30 01:10:07;;;;;;;0.45;0.45;;;13.40;99.90;;;;;;5056347;28;20041;-74
2022/08/30 01:12:32;;;;;;;4.07;0.50;;;13.40;99.90;;;;;;5058172;28;20116;-74
2022/08/30 01:15:02;;;;;;;0.43;0.20;;;13.40;99.90;;;;;;5059118;28;20105;-74
2022/08/30 01:17:28;;;;;;;0.00;0.00;;;13.30;99.90;;;;;;5061057;28;20392;-74
2022/08/30 01:20:08;;;;;;;0.40;0.40;;;13.40;99.90;;;;;;5058119;28;20036;-75
2022/08/30 01:22:57;;;;;;;0.08;0.05;;;13.30;99.90;;;;;;5057275;28;20060;-75
2022/08/30 01:25:28;;;;;;;0.10;0.10;;;13.20;99.90;;;;;;5042717;28;20053;-74
2022/08/30 01:27:59;;;;;;;0.52;0.35;;;13.20;99.90;;;;;;5055723;28;20483;-74
2022/08/30 01:30:25;;;;;;;0.00;0.00;;;13.10;99.90;;;;;;5055820;28;20037;-74
2022/08/30 01:33:00;;;;;;;0.20;0.20;;;13.10;99.90;;;;;;5054675;28;20090;-74
2022/08/30 01:35:34;;;;;;;0.13;0.13;;;13.00;99.90;;;;;;5055130;28;20045;-74
2022/08/30 01:38:00;;;;;;;0.00;0.00;;;12.90;99.90;;;;;;5054994;28;20063;-75
2022/08/30 01:40:26;;;;;;;0.00;0.00;;;12.90;99.90;;;;;;5055300;28;20033;-75
2022/08/30 01:42:54;;;;;;;0.00;0.00;;;12.90;99.90;;;;;;5036639;28;20049;-75
2022/08/30 01:45:20;;;;;;;0.20;0.20;;;12.80;99.90;;;;;;5054481;28;20045;-75
2022/08/30 01:47:46;;;;;;;0.00;0.00;;;12.80;99.90;;;;;;5054610;28;20037;-75
2022/08/30 01:50:11;;;;;;;0.00;0.00;;;12.80;99.90;;;;;;5054448;28;20045;-75
2022/08/30 01:52:37;;;;;;;0.00;0.00;;;12.70;99.90;;;;;;5054187;28;20094;-75
2022/08/30 01:55:04;;;;;;;0.08;0.08;;;12.70;99.90;;;;;;5051194;28;20131;-75
2022/08/30 01:57:30;;;;;;;0.08;0.00;;;12.80;99.90;;;;;;5054110;28;20092;-75
2022/08/30 01:59:55;;;;;;;4.15;0.85;;;12.80;99.90;;;;;;5054726;28;20053;-75
2022/08/30 02:02:25;;;;;;;0.60;0.22;;;12.80;99.90;;;;;;5054678;28;20044;-75
2022/08/30 02:04:52;;;;;;;0.10;0.05;;;12.80;99.90;;;;;;5036154;28;20045;-74
2022/08/30 02:07:18;;;;;;;0.25;0.17;;;12.80;99.90;;;;;;5054072;28;20041;-75
2022/08/30 02:09:44;;;;;;;0.05;0.05;;;12.80;99.90;;;;;;5054817;28;20037;-75
2022/08/30 02:12:09;;;;;;;0.00;0.00;;;12.80;99.90;;;;;;5054211;28;20118;-75
2022/08/30 02:14:37;;;;;;;0.73;0.52;;;12.80;99.90;;;;;;5054474;28;20073;-74
2022/08/30 02:17:08;;;;;;;1.75;0.55;;;12.80;99.90;;;;;;5055921;28;20037;-75
2022/08/30 02:19:34;;;;;;;0.00;0.00;;;12.90;99.90;;;;;;5056148;28;20037;-75
2022/08/30 02:21:59;;;;;;;0.08;0.08;;;12.90;99.90;;;;;;5056130;28;20136;-75
2022/08/30 02:24:25;;;;;;;0.00;0.00;;;12.80;99.90;;;;;;5055998;28;20036;-75
2022/08/30 02:26:52;;;;;;;0.00;0.00;;;12.80;99.90;;;;;;5057487;28;20399;-74
2022/08/30 02:29:20;;;;;;;0.10;0.10;;;12.80;99.90;;;;;;5060635;28;20052;-74
2022/08/30 02:31:45;;;;;;;0.68;0.43;;;12.80;99.90;;;;;;5043015;28;20444;-74
2022/08/30 02:34:11;;;;;;;0.00;0.00;;;12.70;99.90;;;;;;5061200;28;20033;-74
2022/08/30 02:36:39;;;;;;;0.52;0.40;;;13.40;99.90;;;;;;5048326;28;20041;-74
2022/08/30 02:39:05;;;;;;;0.20;0.17;;;12.70;99.90;;;;;;5066723;28;20041;-75
2022/08/30 02:41:31;;;;;;;0.10;0.05;;;12.70;99.90;;;;;;5066963;28;20044;-74
2022/08/30 02:43:59;;;;;;;0.00;0.00;;;12.70;99.90;;;;;;5048167;28;20049;-74
2022/08/30 02:46:25;;;;;;;0.38;0.28;;;12.70;99.90;;;;;;5064473;28;20040;-74
2022/08/30 02:48:51;;;;;;;0.65;0.45;;;12.70;99.90;;;;;;5047350;28;20052;-74
2022/08/30 02:51:16;;;;;;;0.80;0.80;;;12.70;99.90;;;;;;5062379;28;20049;-75
2022/08/30 02:53:43;;;;;;;0.10;0.10;;;12.60;99.90;;;;;;5061303;28;20499;-74
2022/08/30 02:56:10;;;;;;;0.00;0.00;;;12.60;99.90;;;;;;5043690;28;20499;-74
2022/08/30 02:58:36;;;;;;;0.90;0.70;;;12.50;99.90;;;;;;5061697;28;20476;-74
2022/08/30 03:01:03;;;;;;;20.42;0.98;;;12.40;99.90;;;;;;5063960;28;20045;-75
2022/08/30 03:03:29;;;;;;;0.20;0.20;;;12.40;99.90;;;;;;5041912;28;20445;-75
2022/08/30 03:05:55;;;;;;;0.00;0.00;;;12.90;99.90;;;;;;5058730;28;20057;-74
2022/08/30 03:08:21;;;;;;;0.10;0.00;;;12.20;99.90;;;;;;5040688;28;20060;-74
2022/08/30 03:10:47;;;;;;;0.43;0.30;;;12.10;99.90;;;;;;5058226;28;20549;-74
2022/08/30 03:13:12;;;;;;;1.15;0.68;;;12.00;99.90;;;;;;5057633;28;20124;-75
2022/08/30 03:15:39;;;;;;;0.00;0.00;;;12.00;99.90;;;;;;5057110;28;20059;-75
2022/08/30 03:18:05;;;;;;;0.20;0.17;;;12.00;99.90;;;;;;5056812;28;20045;-75
2022/08/30 03:20:31;;;;;;;0.65;0.55;;;11.90;99.90;;;;;;5056395;28;20033;-75
2022/08/30 03:22:57;;;;;;;0.30;0.28;;;12.00;99.90;;;;;;5056723;28;20051;-75
2022/08/30 03:25:22;;;;;;;0.20;0.20;;;11.90;99.90;;;;;;5056745;28;20067;-75
2022/08/30 03:27:49;;;;;;;1.17;0.40;;;11.90;99.90;;;;;;5057339;28;20506;-75
2022/08/30 03:30:16;;;;;;;0.50;0.25;;;11.80;99.90;;;;;;5057516;28;20051;-74
2022/08/30 03:32:42;;;;;;;0.35;0.35;;;11.70;99.90;;;;;;5058090;28;20041;-74
2022/08/30 03:35:08;;;;;;;0.47;0.47;;;11.80;99.90;;;;;;5057189;28;20417;-74
2022/08/30 03:37:34;;;;;;;0.20;0.20;;;11.80;99.90;;;;;;5057176;28;20044;-75
2022/08/30 03:40:01;;;;;;;0.75;0.75;;;11.70;99.90;;;;;;5056975;28;20091;-75
2022/08/30 03:42:27;;;;;;;0.17;0.13;;;11.50;99.90;;;;;;5056950;28;20080;-75
2022/08/30 03:44:52;;;;;;;0.10;0.10;;;11.50;99.90;;;;;;5038696;28;20377;-75
2022/08/30 03:47:19;;;;;;;0.43;0.30;;;11.30;99.90;;;;;;5057094;28;20041;-75
2022/08/30 03:49:45;;;;;;;0.20;0.20;;;11.20;99.90;;;;;;5056166;28;20059;-74
2022/08/30 03:52:11;;;;;;;0.13;0.13;;;11.10;99.90;;;;;;5057033;28;20094;-75
2022/08/30 03:54:37;;;;;;;0.20;0.10;;;11.10;99.90;;;;;;5056631;28;20045;-75
2022/08/30 03:57:03;;;;;;;0.57;0.32;;;11.10;99.90;;;;;;5056489;28;20484;-75
2022/08/30 03:59:28;;;;;;;0.32;0.15;;;11.20;99.90;;;;;;5056212;28;20045;-75
2022/08/30 04:01:54;;;;;;;0.20;0.20;;;11.40;99.90;;;;;;5056270;28;20124;-75
2022/08/30 04:04:20;;;;;;;0.00;0.00;;;11.20;99.90;;;;;;5056208;28;20041;-75
2022/08/30 04:06:45;;;;;;;0.10;0.10;;;11.20;99.90;;;;;;5055867;28;21293;-75
2022/08/30 04:09:11;;;;;;;0.08;0.08;;;11.20;99.90;;;;;;5056057;28;20029;-75
2022/08/30 04:11:37;;;;;;;0.60;0.55;;;11.10;99.90;;;;;;5056064;28;20094;-75
2022/08/30 04:14:02;;;;;;;1.90;0.38;;;11.10;99.90;;;;;;5055830;28;20037;-76
2022/08/30 04:16:28;;;;;;;1.02;0.95;;;11.10;99.90;;;;;;5056069;28;20123;-75
2022/08/30 04:18:53;;;;;;;0.43;0.43;;;11.00;99.90;;;;;;5056133;28;20048;-75
2022/08/30 04:21:19;;;;;;;0.45;0.45;;;11.00;99.90;;;;;;5056052;28;20060;-75
2022/08/30 04:23:46;;;;;;;0.30;0.30;;;12.10;99.90;;;;;;5054530;28;20052;-75
2022/08/30 04:26:11;;;;;;;0.03;0.03;;;11.00;99.90;;;;;;5053518;28;20463;-76
2022/08/30 04:28:37;;;;;;;0.00;0.00;;;10.90;99.90;;;;;;5053536;28;20052;-75
2022/08/30 04:31:12;;;;;;;0.00;0.00;;;10.80;99.90;;;;;;5052964;28;20041;-76
2022/08/30 04:33:38;;;;;;;0.35;0.15;;;10.60;99.90;;;;;;5054004;28;20395;-74
2022/08/30 04:36:05;;;;;;;0.20;0.20;;;10.50;99.90;;;;;;5054211;28;20048;-75
2022/08/30 04:38:32;;;;;;;0.00;0.00;;;10.50;99.90;;;;;;5054221;28;20123;-75
2022/08/30 04:41:01;;;;;;;0.13;0.10;;;10.50;99.90;;;;;;5056517;28;20037;-75
2022/08/30 04:43:30;;;;;;;0.40;0.20;;;11.10;99.90;;;;;;5056085;28;20045;-75
2022/08/30 04:45:59;;;;;;;0.08;0.08;;;10.60;99.90;;;;;;5037607;28;20049;-75
2022/08/30 04:48:24;;;;;;;0.25;0.25;;;10.60;99.90;;;;;;5037399;28;20510;-75
2022/08/30 04:50:50;;;;;;;0.00;0.00;;;10.60;99.90;;;;;;5055007;28;20044;-76
2022/08/30 04:53:15;;;;;;;0.30;0.20;;;10.60;99.90;;;;;;5055240;28;20099;-76
2022/08/30 04:55:42;;;;;;;0.10;0.05;;;10.60;99.90;;;;;;5055251;28;20041;-75
2022/08/30 04:58:09;;;;;;;0.22;0.22;;;10.60;99.90;;;;;;5055202;28;20060;-75
2022/08/30 05:00:36;;;;;;;0.43;0.35;;;10.60;99.90;;;;;;5055894;28;20131;-76
2022/08/30 05:03:02;;;;;;;0.47;0.47;;;10.50;99.90;;;;;;5055514;28;20067;-76
2022/08/30 05:05:40;;;;;;;0.00;0.00;;;10.50;99.90;;;;;;5055270;28;20045;-75
2022/08/30 05:08:12;;;;;;;0.00;0.00;;;10.40;99.90;;;;;;5055283;28;20120;-75
2022/08/30 05:10:47;;;;;;;0.00;0.00;;;10.30;99.90;;;;;;5054449;28;20044;-75
2022/08/30 05:13:14;;;;;;;0.38;0.30;;;11.10;99.90;;;;;;5055180;28;20060;-75
2022/08/30 05:15:40;;;;;;;0.22;0.20;;;10.90;99.90;;;;;;5054881;28;20093;-76
2022/08/30 05:18:07;;;;;;;0.25;0.13;;;10.30;99.90;;;;;;5054504;28;20036;-76
2022/08/30 05:20:34;;;;;;;0.00;0.00;;;10.20;99.90;;;;;;5036798;28;20069;-76
2022/08/30 05:23:00;;;;;;;0.00;0.00;;;10.20;99.90;;;;;;5054465;28;20086;-76
2022/08/30 05:25:29;;;;;;;0.00;0.00;;;10.20;99.90;;;;;;5036702;28;20127;-76
2022/08/30 05:27:55;;;;;;;0.00;0.00;;;10.30;99.90;;;;;;5054991;28;20049;-75
2022/08/30 05:30:22;;;;;;;0.35;0.32;;;10.30;99.90;;;;;;5054565;28;20052;-75
2022/08/30 05:32:48;;;;;;;0.10;0.10;;;10.50;99.90;;;;;;5054238;28;20130;-75
2022/08/30 05:35:15;;;;;;;0.13;0.13;;;10.60;99.90;;;;;;5054476;28;20088;-76
2022/08/30 05:37:41;;;;;;;0.00;0.00;;;10.70;99.90;;;;;;5019897;28;20557;-76
2022/08/30 05:40:08;;;;;;;0.68;0.43;;;10.70;99.90;;;;;;5053967;28;20044;-76
2022/08/30 05:42:34;;;;;;;0.45;0.35;;;10.70;99.90;;;;;;5036347;28;20113;-75
2022/08/30 05:45:00;;;;;;;0.47;0.38;;;10.80;99.90;;;;;;5053687;28;20041;-76
2022/08/30 05:47:26;;;;;;;0.38;0.35;;;10.90;99.90;;;;;;5053795;28;20041;-76
2022/08/30 05:49:52;;;;;;;0.10;0.10;;;11.00;99.90;;;;;;5053559;28;20090;-76
2022/08/30 05:52:18;;;;;;;0.47;0.47;;;11.10;99.90;;;;;;5053823;28;20087;-76
2022/08/30 05:54:44;;;;;;;0.20;0.20;;;11.20;99.90;;;;;;5036013;28;20045;-75
2022/08/30 05:57:10;;;;;;;0.00;0.00;;;11.30;99.90;;;;;;5053885;28;20102;-75
2022/08/30 05:59:36;;;;;;;0.10;0.10;;;11.50;99.90;;;;;;5053688;28;20041;-76
2022/08/30 06:02:02;;;;;;;0.28;0.22;;;11.60;99.90;;;;;;5053351;28;20128;-76
2022/08/30 06:04:28;;;;;;;0.08;0.05;;;11.50;99.90;;;;;;5034883;28;20045;-76
2022/08/30 06:06:54;;;;;;;0.00;0.00;;;11.60;99.90;;;;;;5052511;28;20067;-75
2022/08/30 06:09:19;;;;;;;0.00;0.00;;;11.80;99.90;;;;;;5052513;28;20118;-76
2022/08/30 06:11:46;;;;;;;0.20;0.20;;;11.90;99.90;;;;;;5052816;28;20052;-75
2022/08/30 06:14:12;;;;;;;0.25;0.25;;;12.00;99.90;;;;;;5052796;28;20082;-76
2022/08/30 06:16:39;;;;;;;0.52;0.40;;;12.60;99.90;;;;;;5052398;28;20499;-76
2022/08/30 06:19:07;;;;;;;1.05;0.88;;;13.30;99.90;;;;;;5034770;28;20047;-76
2022/08/30 06:21:35;;;;;;;0.00;0.00;;;13.90;99.90;;;;;;5002405;28;20428;-76
2022/08/30 06:24:01;;;;;;;0.32;0.20;;;14.40;99.90;;;;;;5052502;28;20045;-76
2022/08/30 06:26:28;;;;;;;0.00;0.00;;;14.80;99.90;;;;;;5052316;28;20048;-75
2022/08/30 06:28:55;;;;;;;0.25;0.10;;;15.30;99.90;;;;;;5052833;28;20037;-76
2022/08/30 06:31:23;;;;;;;0.57;0.20;;;15.50;99.90;;;;;;5035004;28;20057;-75
2022/08/30 06:33:50;;;;;;;0.75;0.43;;;16.10;99.90;;;;;;5052376;28;20469;-75
2022/08/30 06:36:22;;;;;;;1.00;0.55;;;16.50;99.90;;;;;;5052319;28;20053;-76
2022/08/30 06:38:55;;;;;;;0.50;0.30;;;16.80;99.90;;;;;;5052819;28;20049;-76
2022/08/30 06:41:25;;;;;;;0.43;0.40;;;17.40;99.90;;;;;;5035983;28;20458;-75
2022/08/30 06:43:51;;;;;;;0.32;0.30;;;17.70;99.90;;;;;;5038610;28;20060;-75
2022/08/30 06:46:23;;;;;;;0.10;0.10;;;18.20;99.90;;;;;;5053901;28;20577;-76
2022/08/30 06:48:49;;;;;;;0.00;0.00;;;18.30;99.90;;;;;;5053085;28;20423;-76
2022/08/30 06:51:20;;;;;;;0.05;0.05;;;19.00;99.90;;;;;;5052454;28;20037;-76
2022/08/30 06:53:47;;;;;;;0.10;0.10;;;19.10;99.90;;;;;;5034467;28;20453;-75
2022/08/30 06:56:13;;;;;;;1.42;0.60;;;19.60;99.90;;;;;;5051211;28;20124;-75
2022/08/30 06:58:39;;;;;;;3.75;0.43;;;20.10;99.90;;;;;;5051300;28;20080;-76
2022/08/30 07:01:06;;;;;;;0.00;0.00;;;20.40;99.90;;;;;;5034103;28;20046;-75
2022/08/30 07:03:33;;;;;;;0.25;0.17;;;20.70;99.90;;;;;;5034072;28;20065;-76
2022/08/30 07:05:59;;;;;;;0.55;0.40;;;20.60;99.90;;;;;;5049975;28;20052;-76
2022/08/30 07:08:24;;;;;;;1.52;0.17;;;20.90;99.90;;;;;;5049924;28;20373;-75
2022/08/30 07:10:53;;;;;;;0.08;0.08;;;21.00;99.90;;;;;;5049906;28;20071;-76
2022/08/30 07:13:20;;;;;;;0.65;0.43;;;21.30;99.90;;;;;;5053193;28;20059;-76
2022/08/30 07:15:46;;;;;;;0.65;0.28;;;21.10;99.90;;;;;;5055485;28;20130;-76
2022/08/30 07:20:57;;;;;;;0.08;0.03;;;21.80;99.90;;;;;;5053560;28;20111;-76
2022/08/30 07:23:23;;;;;;;0.05;0.05;;;21.90;99.90;;;;;;5053742;28;20499;-76
2022/08/30 07:25:49;;;;;;;0.00;0.00;;;21.80;99.90;;;;;;5054638;28;20071;-76
2022/08/30 07:28:15;;;;;;;0.47;0.20;;;22.00;99.90;;;;;;5053645;28;20049;-76
2022/08/30 07:30:41;;;;;;;0.40;0.32;;;22.00;99.90;;;;;;5053984;28;20056;-76
2022/08/30 07:33:07;;;;;;;0.17;0.15;;;22.10;98.60;;;;;;5054258;28;20049;-76
2022/08/30 07:35:33;;;;;;;0.00;0.00;;;21.90;97.30;;;;;;5054205;28;20094;-77
2022/08/30 07:37:59;;;;;;;0.60;0.47;;;21.60;99.90;;;;;;5053609;28;20045;-76
2022/08/30 07:40:25;;;;;;;0.17;0.15;;;21.90;94.60;;;;;;5054414;28;20456;-75
2022/08/30 07:42:51;;;;;;;0.00;0.00;;;22.00;91.10;;;;;;5035818;28;20044;-73
2022/08/30 07:45:17;;;;;;;0.00;0.00;;;21.90;94.40;;;;;;5053940;28;20114;-76
2022/08/30 07:47:44;;;;;;;0.00;0.00;;;22.10;89.20;;;;;;5053494;28;20040;-76
2022/08/30 07:50:10;;;;;;;0.15;0.05;;;22.00;80.00;;;;;;5053954;28;20052;-76
2022/08/30 07:52:36;;;;;;;0.03;0.03;;;22.30;77.50;;;;;;5052987;28;20087;-76
2022/08/30 07:55:02;;;;;;;0.32;0.32;;;22.40;70.30;;;;;;5035083;28;20044;-76
2022/08/30 07:57:32;;;;;;;0.00;0.00;;;22.60;60.10;;;;;;5052642;28;20057;-76
2022/08/30 08:00:00;;;;;;;0.93;0.35;;;22.40;63.60;;;;;;5052720;28;20084;-77
2022/08/30 08:02:26;;;;;;;0.28;0.20;;;22.40;59.60;;;;;;5052768;28;20084;-76
2022/08/30 08:04:54;;;;;;;13.80;0.43;;;22.30;62.60;;;;;;5052308;28;20052;-77
2022/08/30 08:07:20;;;;;;;0.00;0.00;;;22.80;54.30;;;;;;5034620;28;20534;-77
2022/08/30 08:09:46;;;;;;;0.00;0.00;;;22.90;37.50;;;;;;5035058;28;20044;-77
2022/08/30 08:12:11;;;;;;;0.00;0.00;;;22.90;35.80;;;;;;5052693;28;20586;-76
2022/08/30 08:14:38;;;;;;;0.00;0.00;;;22.70;32.20;;;;;;5052653;28;20052;-77
2022/08/30 08:17:03;;;;;;;0.00;0.00;;;22.40;32.80;;;;;;5052323;28;20049;-77
2022/08/30 08:19:29;;;;;;;0.38;0.20;;;22.50;39.00;;;;;;5052386;28;20129;-76
2022/08/30 08:21:58;;;;;;;0.00;0.00;;;22.90;29.30;;;;;;5052505;28;20048;-76
2022/08/30 08:24:25;;;;;;;0.00;0.00;;;23.10;29.60;;;;;;5051102;28;20057;-76
2022/08/30 08:26:51;;;;;;;0.00;0.00;;;22.80;26.30;;;;;;5052510;28;20052;-76
2022/08/30 08:29:16;;;;;;;0.20;0.13;;;23.00;31.00;;;;;;5052027;28;20045;-76
2022/08/30 08:31:42;;;;;;;0.35;0.30;;;22.80;27.50;;;;;;5033685;28;20053;-75
2022/08/30 08:34:08;;;;;;;0.20;0.15;;;23.20;25.80;;;;;;5051300;28;20037;-75
2022/08/30 08:36:34;;;;;;;0.08;0.08;;;23.30;28.10;;;;;;5051493;28;20175;-76
2022/08/30 08:39:02;;;;;;;0.45;0.13;;;23.70;19.50;;;;;;5051776;28;20036;-76
2022/08/30 08:41:48;;;;;;;0.00;0.00;;;23.60;18.50;;;;;;5033939;28;20124;-77
2022/08/30 08:44:38;;;;;;;0.10;0.10;;;23.50;17.70;;;;;;5047619;28;20064;-76
2022/08/30 08:47:16;;;;;;;0.10;0.10;;;23.70;18.50;;;;;;5049048;28;20133;-76
2022/08/30 08:49:46;;;;;;;0.30;0.30;;;23.80;14.10;;;;;;5051761;28;20067;-78
2022/08/30 08:55:11;;;;;;;0.30;0.20;;;23.60;15.60;;;;;;5051549;28;20403;-76
2022/08/30 08:57:37;;;;;;;0.43;0.25;;;23.90;13.40;;;;;;5051418;28;20049;-77
2022/08/30 09:00:08;;;;;;;0.25;0.20;;;23.80;10.30;;;;;;5051656;28;20497;-77
2022/08/30 09:02:43;;;;;;;0.00;0.00;;;23.60;13.00;;;;;;5051406;28;20036;-76
2022/08/30 09:05:12;;;;;;;0.00;0.00;;;23.90;10.60;;;;;;5052233;28;20037;-77
2022/08/30 09:07:47;;;;;;;0.00;0.00;;;23.90;12.00;;;;;;5051457;28;20045;-76
2022/08/30 09:10:13;;;;;;;0.10;0.10;;;24.20;9.10;;;;;;5051450;28;20044;-76
2022/08/30 09:12:39;;;;;;;0.80;0.55;;;24.40;10.90;;;;;;5051114;28;20115;-76
2022/08/30 09:15:26;;;;;;;0.88;0.30;;;23.90;12.60;;;;;;5050969;28;20645;-76
2022/08/30 09:18:00;;;;;;;0.90;0.32;;;24.00;15.20;;;;;;5051268;28;20041;-76
2022/08/30 09:20:28;;;;;;;0.45;0.22;;;23.50;12.10;;;;;;5033365;28;20744;-76
2022/08/30 09:22:53;;;;;;;0.22;0.17;;;23.50;10.30;;;;;;5016891;28;20056;-76
2022/08/30 09:25:25;;;;;;;0.00;0.00;;;24.20;17.10;;;;;;5051093;28;20041;-76
2022/08/30 09:27:53;;;;;;;0.00;0.00;;;24.00;10.30;;;;;;5050931;28;20096;-76
2022/08/30 09:30:27;;;;;;;0.00;0.00;;;23.00;14.60;;;;;;5032303;28;20068;-76
2022/08/30 09:32:59;;;;;;;0.32;0.13;;;22.80;18.20;;;;;;5050902;28;20053;-76
2022/08/30 09:36:15;;;;;;;0.35;0.22;;;23.20;22.20;;;;;;5050666;28;20507;-77
2022/08/30 09:38:40;;;;;;;0.00;0.00;;;22.90;23.90;;;;;;4969232;28;20051;-75
2022/08/30 09:41:34;;;;;;;0.30;0.13;;;23.60;17.20;;;;;;4969491;28;20410;-76
2022/08/30 09:44:07;;;;;;;0.93;0.20;;;24.10;14.20;;;;;;5028620;28;20059;-75
2022/08/30 09:46:33;;;;;;;0.00;0.00;;;24.20;8.60;;;;;;5052265;28;20194;-76
2022/08/30 09:48:58;;;;;;;0.00;0.00;;;24.00;7.00;;;;;;5052970;28;20072;-77
2022/08/30 09:51:43;;;;;;;0.13;0.13;;;24.20;9.10;;;;;;5052682;28;20045;-76
2022/08/30 09:54:24;;;;;;;1.17;0.47;;;23.90;3.60;;;;;;5052600;28;20377;-77
2022/08/30 09:56:59;;;;;;;0.00;0.00;;;23.70;2.10;;;;;;5016265;28;20428;-77
2022/08/30 09:59:52;;;;;;;0.20;0.10;;;23.60;8.20;;;;;;5050576;28;20133;-79
2022/08/30 10:02:20;;;;;;;0.00;0.00;;;23.50;6.70;;;;;;5050183;28;20037;-77
2022/08/30 10:04:53;;;;;;;0.45;0.17;;;23.60;4.00;;;;;;5050028;28;20048;-77
2022/08/30 10:07:33;;;;;;;0.00;0.00;;;23.60;10.30;;;;;;5050690;28;20424;-76
2022/08/30 10:10:26;;;;;;;0.20;0.10;;;23.30;7.30;;;;;;5015040;28;20048;-77
2022/08/30 10:13:05;;;;;;;0.00;0.00;;;22.90;10.80;;;;;;5047099;28;20040;-75
2022/08/30 10:15:41;;;;;;;0.32;0.15;;;22.90;8.40;;;;;;5049599;28;20051;-75
2022/08/30 10:18:29;;;;;;;;;;;22.90;8.70;;;;;;5050116;28;20079;-75
2022/08/30 10:21:09;;;;;;;13.32;2.85;;;23.30;8.70;;;;;;5049411;28;20379;-76
2022/08/30 10:23:53;;;;;;;0.00;0.00;;;23.80;1.10;;;;;;5049701;28;20408;-76
2022/08/30 10:26:44;;;;;;;0.00;0.00;;;24.10;1.00;;;;;;5049573;28;20049;-76
2022/08/30 10:29:13;;;;;;;0.28;0.13;;;24.20;1.00;;;;;;5049140;28;20403;-75
2022/08/30 10:32:00;;;;;;;0.00;0.00;;;24.50;1.00;;;;;;5048839;28;20095;-75
2022/08/30 10:34:36;;;;;;;0.20;0.20;;;24.40;1.00;;;;;;5051529;28;20041;-76
2022/08/30 10:37:22;;;;;;;0.30;0.20;;;24.00;1.00;;;;;;5052860;28;20379;-75
2022/08/30 10:39:51;;;;;;;0.28;0.25;;;23.90;1.00;;;;;;5052083;28;20491;-75
2022/08/30 10:42:22;;;;;;;0.00;0.00;;;23.70;1.00;;;;;;5052117;28;20053;-74
2022/08/30 10:44:54;;;;;;;0.15;0.13;;;24.50;1.00;;;;;;5052162;28;20069;-75
2022/08/30 10:47:36;;;;;;;0.20;0.10;;;24.40;1.00;;;;;;5052454;28;20397;-75
2022/08/30 10:50:26;;;;;;;0.08;0.00;;;23.60;1.00;;;;;;5055912;28;20056;-75
2022/08/30 10:53:15;;;;;;;0.00;0.00;;;23.70;1.00;;;;;;5054779;28;20037;-74
2022/08/30 10:55:50;;;;;;;0.00;0.00;;;23.40;1.10;;;;;;5054739;28;20064;-75
2022/08/30 10:58:17;;;;;;;2.70;0.55;;;23.60;2.10;;;;;;5055496;28;20076;-75
2022/08/30 11:01:01;;;;;;;0.00;0.00;;;23.80;2.00;;;;;;5055764;28;20059;-74
2022/08/30 11:04:04;;;;;;;0.10;0.05;;;24.00;1.00;;;;;;5055749;28;20535;-74
2022/08/30 11:06:41;;;;;;;0.00;0.00;;;23.90;1.00;;;;;;5055665;28;20041;-74
2022/08/30 11:09:31;;;;;;;0.00;0.00;;;24.10;1.00;;;;;;5055781;28;20507;-74
2022/08/30 11:12:36;;;;;;;0.90;0.52;;;24.10;1.00;;;;;;5056100;28;20049;-74
2022/08/30 11:15:36;;;;;;;5.13;0.25;;;24.50;1.00;;;;;;5038582;28;20091;-75
2022/08/30 11:18:07;;;;;;;0.00;0.00;;;24.10;1.00;;;;;;5012636;28;20055;-74
2022/08/30 11:20:36;;;;;;;0.00;0.00;;;24.20;1.00;;;;;;5056132;28;20048;-74
2022/08/30 11:23:20;;;;;;;0.13;0.13;;;24.80;1.00;;;;;;5055096;28;20051;-75
2022/08/30 11:25:58;;;;;;;0.00;0.00;;;25.00;1.00;;;;;;5055921;28;20122;-74
2022/08/30 11:28:36;;;;;;;0.00;0.00;;;25.20;1.00;;;;;;5038065;28;20491;-74
2022/08/30 11:31:08;;;;;;;0.00;0.00;;;25.50;1.00;;;;;;5044164;28;20051;-74
2022/08/30 11:33:55;;;;;;;0.30;0.10;;;25.50;1.00;;;;;;5035827;28;20492;-75
2022/08/30 11:36:31;;;;;;;0.00;0.00;;;26.40;1.00;;;;;;5035819;28;20514;-75
2022/08/30 11:39:05;;;;;;;0.35;0.25;;;26.30;1.00;;;;;;5035922;28;20106;-75
2022/08/30 11:41:42;;;;;;;0.00;0.00;;;26.30;1.00;;;;;;5036014;28;20052;-74
2022/08/30 11:44:12;;;;;;;0.15;0.05;;;25.80;1.00;;;;;;5035864;28;20565;-74
2022/08/30 11:46:40;;;;;;;0.00;0.00;;;25.40;1.00;;;;;;5035499;28;20444;-74
2022/08/30 11:49:08;;;;;;;0.38;0.22;;;24.60;1.00;;;;;;5035617;28;20116;-74
2022/08/30 11:52:08;;;;;;;0.15;0.10;;;25.10;1.00;;;;;;5035509;28;20542;-74
2022/08/30 11:54:49;;;;;;;0.43;0.30;;;25.50;1.00;;;;;;5035824;28;20051;-74
2022/08/30 11:57:33;;;;;;;0.00;0.00;;;26.20;1.00;;;;;;5035306;28;20534;-75
2022/08/30 12:00:09;;;;;;;0.00;0.00;;;26.70;1.00;;;;;;5035380;28;20049;-74
2022/08/30 12:02:43;;;;;;;2.38;0.35;;;27.00;1.00;;;;;;5035256;28;20034;-74
2022/08/30 12:05:36;;;;;;;0.13;0.08;;;27.30;1.00;;;;;;5035091;28;20125;-75
2022/08/30 12:08:05;;;;;;;0.00;0.00;;;27.20;1.00;;;;;;5017261;28;20061;-75
2022/08/30 12:10:39;;;;;;;0.90;0.35;;;26.90;1.00;;;;;;5035381;28;20076;-75
2022/08/30 12:13:04;;;;;;;0.00;0.00;;;26.90;1.00;;;;;;5035456;28;20037;-75
2022/08/30 12:15:55;;;;;;;0.00;0.00;;;27.00;1.00;;;;;;5035126;28;20103;-74
2022/08/30 12:18:26;;;;;;;1.08;0.45;;;27.00;1.00;;;;;;5035203;28;20045;-74
2022/08/30 12:20:53;;;;;;;0.43;0.40;;;27.60;1.00;;;;;;5035233;28;20053;-73
2022/08/30 12:23:22;;;;;;;7.53;0.30;;;28.00;1.00;;;;;;5035002;28;20427;-73
2022/08/30 12:25:48;;;;;;;0.00;0.00;;;27.00;1.00;;;;;;5034768;28;20456;-74
2022/08/30 12:28:23;;;;;;;0.17;0.10;;;26.60;1.00;;;;;;5035030;28;20068;-73
2022/08/30 12:30:50;;;;;;;0.85;0.25;;;27.10;1.00;;;;;;5035014;28;20045;-73
2022/08/30 12:33:26;;;;;;;0.15;0.08;;;28.20;1.00;;;;;;5034720;28;20091;-73
2022/08/30 12:35:53;;;;;;;0.43;0.25;;;28.10;1.00;;;;;;5034876;28;20132;-75
2022/08/30 12:38:20;;;;;;;0.00;0.00;;;27.40;1.00;;;;;;5034475;28;20053;-73
2022/08/30 12:40:55;;;;;;;0.70;0.38;;;26.20;1.00;;;;;;5034556;28;20451;-73
2022/08/30 12:43:36;;;;;;;0.52;0.30;;;25.60;1.00;;;;;;5034631;28;20076;-73
2022/08/30 12:46:06;;;;;;;2.45;0.98;;;26.10;1.00;;;;;;5034740;28;20057;-74
2022/08/30 12:48:35;;;;;;;0.00;0.00;;;27.50;1.00;;;;;;5034151;28;20064;-74
2022/08/30 12:51:01;;;;;;;0.38;0.10;;;27.20;1.00;;;;;;5033913;28;20042;-73
2022/08/30 12:53:40;;;;;;;0.47;0.40;;;26.40;1.00;;;;;;5033766;28;20457;-73
2022/08/30 12:56:16;;;;;;;0.20;0.20;;;25.40;1.00;;;;;;5034113;28;20080;-73
2022/08/30 12:58:44;;;;;;;0.05;0.05;;;25.20;1.00;;;;;;5033856;28;20111;-73
2022/08/30 13:01:31;;;;;;;4.30;0.45;;;25.20;1.00;;;;;;5033628;28;20045;-72
2022/08/30 13:04:19;;;;;;;0.00;0.00;;;25.80;1.00;;;;;;5033691;28;20576;-72
2022/08/30 13:06:52;;;;;;;0.00;0.00;;;26.30;1.00;;;;;;5033618;28;20108;-74
2022/08/30 13:09:41;;;;;;;0.00;0.00;;;27.10;1.00;;;;;;5033611;28;20045;-74
2022/08/30 13:12:22;;;;;;;5.13;0.10;;;27.70;1.00;;;;;;5009289;28;20053;-74